createdAt,value
2019-02-28T00:02:27.195Z,7.43
2019-02-28T00:07:31.075Z,8.93
2019-02-28T00:12:34.964Z,9.47
2019-02-28T00:17:42.551Z,9.30
2019-02-28T00:22:48.369Z,8.30
2019-02-28T00:27:52.630Z,8.50
2019-02-28T00:32:59.426Z,9.43
2019-02-28T00:38:03.202Z,10.80
2019-02-28T00:43:07.091Z,10.43
2019-02-28T00:48:11.066Z,11.57
2019-02-28T00:53:14.941Z,11.30
2019-02-28T00:58:19.393Z,13.00
2019-02-28T01:03:26.486Z,12.50
2019-02-28T01:08:29.023Z,14.80
2019-02-28T01:13:32.967Z,15.83
2019-02-28T01:18:36.946Z,15.93
2019-02-28T01:23:40.974Z,16.23
2019-02-28T01:28:44.839Z,17.40
2019-02-28T01:33:48.723Z,17.00
2019-02-28T01:38:57.529Z,17.20
2019-02-28T01:44:01.623Z,18.43
2019-02-28T01:49:04.038Z,18.13
2019-02-28T01:54:07.987Z,18.73
2019-02-28T01:59:12.002Z,18.93
2019-02-28T02:04:15.982Z,19.43
2019-02-28T02:09:19.942Z,19.60
2019-02-28T02:14:23.827Z,21.23
2019-02-28T02:19:27.896Z,21.67
2019-02-28T02:24:31.851Z,20.57
2019-02-28T02:29:37.055Z,20.93
2019-02-28T02:34:41.181Z,21.43
2019-02-28T02:39:45.075Z,23.00
2019-02-28T02:44:48.971Z,22.67
2019-02-28T02:49:57.459Z,23.47
2019-02-28T02:54:58.481Z,24.13
2019-02-28T03:00:02.487Z,23.37
2019-02-28T03:05:06.995Z,24.93
2019-02-28T03:10:11.881Z,26.43
2019-02-28T03:15:16.076Z,25.27
2019-02-28T03:20:19.936Z,24.47
2019-02-28T03:25:27.452Z,26.87
2019-02-28T03:30:32.813Z,25.30
2019-02-28T03:35:43.047Z,27.57
2019-02-28T03:40:41.249Z,27.67
2019-02-28T03:45:45.316Z,29.27
2019-02-28T03:50:49.256Z,28.37
2019-02-28T03:55:53.120Z,28.47
2019-02-28T04:00:57.129Z,28.20
2019-02-28T04:06:03.826Z,27.17
2019-02-28T04:11:06.736Z,31.20
2019-02-28T04:16:10.839Z,29.77
2019-02-28T04:21:14.794Z,32.33
2019-02-28T04:26:18.696Z,28.40
2019-02-28T04:31:22.718Z,29.90
2019-02-28T04:36:26.588Z,29.03
2019-02-28T04:41:32.962Z,31.77
2019-02-28T04:46:36.127Z,32.60
2019-02-28T04:51:41.049Z,29.83
2019-02-28T04:56:45.631Z,32.40
2019-02-28T05:01:50.508Z,29.73
2019-02-28T05:06:55.311Z,33.30
2019-02-28T05:12:02.499Z,32.60
2019-02-28T05:17:05.510Z,33.03
2019-02-28T05:22:09.473Z,31.57
2019-02-28T05:27:13.359Z,33.30
2019-02-28T05:32:17.243Z,35.53
2019-02-28T05:37:21.321Z,34.80
2019-02-28T05:42:25.389Z,35.70
2019-02-28T05:47:32.250Z,32.50
2019-02-28T05:52:34.986Z,33.50
2019-02-28T05:57:39.438Z,32.87
2019-02-28T06:02:44.647Z,33.70
2019-02-28T06:07:48.607Z,34.90
2019-02-28T06:12:52.544Z,36.30
2019-02-28T06:17:56.411Z,37.40
2019-02-28T06:23:00.257Z,36.60
2019-02-28T06:28:04.135Z,33.73
2019-02-28T06:33:08.012Z,34.37
2019-02-28T06:38:11.888Z,34.80
2019-02-28T06:43:18.748Z,32.63
2019-02-28T06:48:25.790Z,36.03
2019-02-28T06:53:30.775Z,34.90
2019-02-28T06:58:34.014Z,33.13
2019-02-28T07:03:39.030Z,36.40
2019-02-28T07:08:43.763Z,36.03
2019-02-28T07:13:47.643Z,38.23
2019-02-28T07:18:53.802Z,38.43
2019-02-28T07:23:57.136Z,37.77
2019-02-28T07:29:01.102Z,39.53
2019-02-28T07:34:05.053Z,41.20
2019-02-28T07:39:09.076Z,43.83
2019-02-28T07:44:13.043Z,43.63
2019-02-28T07:49:16.960Z,43.60
2019-02-28T07:54:20.828Z,44.40
2019-02-28T07:59:24.765Z,46.30
2019-02-28T08:04:28.631Z,46.07
2019-02-28T08:09:32.651Z,43.57
2019-02-28T08:14:36.515Z,47.20
2019-02-28T08:19:40.396Z,47.10
2019-02-28T08:24:44.339Z,47.03
2019-02-28T08:29:48.215Z,48.00
2019-02-28T08:34:52.088Z,45.63
2019-02-28T08:39:55.960Z,49.40
2019-02-28T08:44:59.900Z,48.10
2019-02-28T08:50:04.121Z,48.43
2019-02-28T08:55:10.223Z,49.77
2019-02-28T09:00:16.397Z,49.37
2019-02-28T09:05:25.453Z,48.33
2019-02-28T09:10:26.059Z,49.03
2019-02-28T09:15:31.239Z,49.90
2019-02-28T09:20:35.435Z,49.40
2019-02-28T09:25:39.380Z,49.63
2019-02-28T09:30:43.363Z,49.70
2019-02-28T09:35:47.303Z,45.43
2019-02-28T09:40:51.320Z,48.13
2019-02-28T09:45:55.213Z,46.80
2019-02-28T09:50:59.215Z,46.57
2019-02-28T09:56:03.109Z,44.47
2019-02-28T10:01:07.036Z,47.80
2019-02-28T10:06:13.431Z,45.53
2019-02-28T10:11:17.097Z,44.17
2019-02-28T10:16:20.977Z,44.03
2019-02-28T10:21:25.390Z,44.10
2019-02-28T10:26:29.471Z,48.30
2019-02-28T10:31:37.917Z,49.20
2019-02-28T10:36:39.139Z,46.53
2019-02-28T10:41:43.228Z,48.03
2019-02-28T10:46:47.113Z,49.30
2019-02-28T10:52:10.363Z,51.93
2019-02-28T10:57:14.847Z,50.50
2019-02-28T11:02:20.006Z,46.27
2019-02-28T11:07:23.991Z,48.80
2019-02-28T11:12:28.250Z,44.70
2019-02-28T11:17:34.163Z,47.13
2019-02-28T11:22:39.709Z,48.60
2019-02-28T11:27:44.640Z,46.30
2019-02-28T11:32:49.068Z,47.17
2019-02-28T11:37:53.335Z,43.10
2019-02-28T11:42:59.501Z,46.03
2019-02-28T11:48:04.923Z,46.10
2019-02-28T11:53:09.459Z,45.80
2019-02-28T11:58:16.613Z,46.30
2019-02-28T12:03:19.549Z,44.07
2019-02-28T12:08:24.022Z,42.70
2019-02-28T12:13:27.958Z,40.17
2019-02-28T12:18:32.095Z,38.97
2019-02-28T12:23:36.356Z,37.27
2019-02-28T12:28:40.402Z,41.27
2019-02-28T12:33:44.831Z,37.40
2019-02-28T12:38:48.955Z,35.80
2019-02-28T12:43:53.987Z,36.20
2019-02-28T12:48:58.235Z,34.73
2019-02-28T12:54:02.450Z,35.67
2019-02-28T12:59:09.947Z,32.43
2019-02-28T13:04:12.701Z,31.87
2019-02-28T13:09:17.762Z,30.13
2019-02-28T13:14:21.846Z,28.80
2019-02-28T13:19:26.147Z,27.60
2019-02-28T13:24:30.368Z,29.10
2019-02-28T13:29:34.594Z,28.70
2019-02-28T13:34:39.117Z,27.53
2019-02-28T13:39:44.792Z,27.70
2019-02-28T13:44:49.346Z,27.87
2019-02-28T13:49:53.612Z,27.03
2019-02-28T13:54:57.742Z,27.93
2019-02-28T14:00:08.025Z,29.17
2019-02-28T14:05:08.028Z,31.90
2019-02-28T14:10:12.751Z,31.13
2019-02-28T14:15:19.291Z,31.37
2019-02-28T14:20:24.428Z,31.77
2019-02-28T14:25:29.386Z,34.43
2019-02-28T14:30:33.314Z,33.33
2019-02-28T14:35:38.631Z,33.93
2019-02-28T14:40:42.942Z,35.30
2019-02-28T14:45:46.992Z,33.97
2019-02-28T14:50:53.986Z,39.17
2019-02-28T14:55:57.207Z,39.40
2019-02-28T15:01:01.507Z,37.20
2019-02-28T15:06:06.043Z,37.47
2019-02-28T15:11:11.148Z,37.70
2019-02-28T15:16:15.751Z,37.00
2019-02-28T15:21:19.701Z,42.13
2019-02-28T15:26:26.571Z,44.10
2019-02-28T15:31:30.160Z,42.07
2019-02-28T15:36:34.779Z,45.00
2019-02-28T15:41:39.597Z,43.20
2019-02-28T15:46:47.399Z,49.03
2019-02-28T15:51:50.031Z,49.23
2019-02-28T15:56:55.468Z,56.03
2019-02-28T16:02:03.605Z,56.63
2019-02-28T16:07:08.971Z,38.63
2019-02-28T16:12:15.193Z,56.02
2019-02-28T16:17:19.699Z,54.90
2019-02-28T16:22:24.111Z,54.33
2019-02-28T16:27:29.570Z,50.23
2019-02-28T16:32:34.681Z,60.07
2019-02-28T16:37:39.024Z,56.20
2019-02-28T16:42:43.378Z,60.73
2019-02-28T16:47:49.860Z,56.03
2019-02-28T16:52:53.984Z,57.30
2019-02-28T16:57:59.061Z,53.60
2019-02-28T17:03:04.048Z,56.37
2019-02-28T17:08:09.572Z,54.57
2019-02-28T17:13:18.624Z,53.57
2019-02-28T17:18:23.188Z,52.90
2019-02-28T17:23:27.205Z,51.47
2019-02-28T17:28:42.285Z,50.60
2019-02-28T17:33:47.889Z,44.33
2019-02-28T17:38:52.415Z,43.50
2019-02-28T17:44:39.847Z,43.90
2019-02-28T17:50:24.216Z,42.13
2019-02-28T17:55:57.431Z,38.33
2019-02-28T18:01:20.451Z,38.10
2019-02-28T18:07:04.860Z,37.77
2019-02-28T18:12:49.915Z,34.53
2019-02-28T18:18:41.609Z,33.20
2019-02-28T18:24:25.667Z,33.00
2019-02-28T18:30:27.581Z,30.40
2019-02-28T18:35:33.417Z,28.67
2019-02-28T18:40:38.019Z,28.83
2019-02-28T18:45:41.963Z,23.53
2019-02-28T18:50:46.478Z,22.10
2019-02-28T18:55:51.196Z,20.10
2019-02-28T19:00:55.374Z,22.30
2019-02-28T19:05:59.631Z,21.87
2019-02-28T19:11:03.856Z,20.73
2019-02-28T19:16:08.123Z,20.17
2019-02-28T19:21:11.999Z,19.30
2019-02-28T19:26:17.576Z,18.50
2019-02-28T19:31:21.753Z,18.50
2019-02-28T19:36:25.851Z,16.83
2019-02-28T19:41:30.224Z,16.70
2019-02-28T19:46:34.607Z,16.47
2019-02-28T19:51:40.278Z,15.40
2019-02-28T19:56:44.700Z,15.00
2019-02-28T20:01:48.555Z,14.30
2019-02-28T20:06:52.795Z,14.03
2019-02-28T20:11:57.238Z,14.07
2019-02-28T20:17:01.371Z,13.00
2019-02-28T20:22:05.936Z,11.90
2019-02-28T20:27:10.372Z,11.93
2019-02-28T20:32:14.324Z,11.30
2019-02-28T20:37:18.605Z,12.50
2019-02-28T20:42:22.603Z,12.10
2019-02-28T20:47:26.852Z,13.00
2019-02-28T20:52:31.038Z,12.37
2019-02-28T20:57:35.530Z,12.17
2019-02-28T21:02:39.783Z,11.30
2019-02-28T21:07:43.877Z,10.97
2019-02-28T21:12:47.801Z,10.03
2019-02-28T21:17:51.994Z,10.30
2019-02-28T21:22:56.717Z,10.60
2019-02-28T21:28:01.158Z,10.97
2019-02-28T21:33:05.384Z,10.13
2019-02-28T21:38:09.815Z,11.77
2019-02-28T21:43:14.055Z,10.20
2019-02-28T21:48:18.400Z,11.13
2019-02-28T21:53:22.519Z,10.83
2019-02-28T21:58:26.887Z,13.37
2019-02-28T22:03:31.296Z,12.10
2019-02-28T22:08:35.270Z,12.77
2019-02-28T22:13:39.201Z,10.83
2019-02-28T22:18:43.328Z,11.87
2019-02-28T22:23:47.448Z,12.13
2019-02-28T22:28:51.387Z,12.80
2019-02-28T22:34:02.631Z,12.40
2019-02-28T22:39:08.052Z,13.43
2019-02-28T22:44:12.716Z,12.60
2019-02-28T22:49:17.228Z,13.07
2019-02-28T22:54:21.363Z,13.83
2019-02-28T22:59:25.731Z,13.67
2019-02-28T23:04:30.091Z,12.80
2019-02-28T23:09:34.052Z,12.57
2019-02-28T23:14:38.336Z,11.83
2019-02-28T23:19:42.568Z,13.47
2019-02-28T23:24:46.755Z,12.90
2019-02-28T23:29:58.959Z,11.80
2019-02-28T23:35:03.123Z,12.20
2019-02-28T23:40:07.240Z,12.60
2019-02-28T23:45:11.957Z,11.27
2019-02-28T23:50:16.443Z,11.23
2019-02-28T23:55:20.639Z,11.97
